Time;durP1;ratioP1;P1;durP2;ratioP2;P2;SDS_P1;SDS_P2;PMS_P1;PMS_P2;Temp;Humidity;BMP_temperature;BMP_pressure;BME280_temperature;BME280_humidity;BME280_pressure;Samples;Min_cycle;Max_cycle;Signal;HPM_P1;HPM_P2
2023/08/28 00:00:58;;;;;;;0.50;0.50;;;;;;;13.09;100.00;98754.84;5032112;28;20099;-84
2023/08/28 00:03:25;;;;;;;0.50;0.50;;;;;;;12.99;100.00;98767.28;4997823;28;20054;-84
2023/08/28 00:05:53;;;;;;;0.45;0.45;;;;;;;13.09;100.00;98771.09;5031926;28;20053;-84
2023/08/28 00:08:20;;;;;;;0.40;0.40;;;;;;;12.87;100.00;98734.19;5031312;28;20132;-84
2023/08/28 00:10:47;;;;;;;0.50;0.50;;;;;;;12.90;100.00;98749.09;5031638;28;20111;-84
2023/08/28 00:13:14;;;;;;;0.50;0.50;;;;;;;12.85;100.00;98749.91;5014309;28;20091;-84
2023/08/28 00:15:41;;;;;;;0.45;0.45;;;;;;;12.97;100.00;98776.75;5031391;28;20041;-84
2023/08/28 00:18:09;;;;;;;0.50;0.50;;;;;;;12.90;100.00;98766.16;5031556;28;20049;-84
2023/08/28 00:20:36;;;;;;;0.50;0.50;;;;;;;12.92;100.00;98765.91;5031424;28;20085;-83
2023/08/28 00:23:03;;;;;;;0.43;0.43;;;;;;;12.86;100.00;98751.50;5014164;28;20049;-85
2023/08/28 00:25:30;;;;;;;0.50;0.50;;;;;;;12.68;100.00;98735.75;5031387;28;20049;-86
2023/08/28 00:27:58;;;;;;;0.50;0.50;;;;;;;12.77;100.00;98764.75;4997675;28;20850;-85
2023/08/28 00:30:25;;;;;;;0.50;0.50;;;;;;;12.75;100.00;98766.91;5013617;28;20053;-85
2023/08/28 00:32:53;;;;;;;0.40;0.40;;;;;;;12.65;100.00;98747.91;4997413;28;20046;-85
2023/08/28 00:35:22;;;;;;;0.50;0.50;;;;;;;12.60;100.00;98749.78;5013461;28;20103;-84
2023/08/28 00:37:49;;;;;;;0.40;0.40;;;;;;;12.74;100.00;98759.88;4997270;28;20072;-84
2023/08/28 00:40:16;;;;;;;0.50;0.50;;;;;;;12.68;100.00;98754.69;5031213;28;20183;-84
2023/08/28 00:42:44;;;;;;;0.40;0.40;;;;;;;12.63;100.00;98752.78;4997570;28;20103;-84
2023/08/28 00:45:11;;;;;;;0.50;0.50;;;;;;;12.60;100.00;98752.50;5013497;28;20096;-84
2023/08/28 00:47:43;;;;;;;0.50;0.50;;;;;;;12.62;100.00;98751.16;5013010;28;20073;-85
2023/08/28 00:50:11;;;;;;;0.40;0.40;;;;;;;12.73;100.00;98752.00;4981429;28;20603;-84
2023/08/28 00:52:38;;;;;;;0.40;0.40;;;;;;;12.64;100.00;98742.78;5013369;28;20168;-84
2023/08/28 00:55:06;;;;;;;0.47;0.47;;;;;;;12.77;100.00;98753.94;5013418;28;20046;-85
2023/08/28 00:57:33;;;;;;;0.40;0.40;;;;;;;12.71;100.00;98759.56;4996970;28;20056;-85
2023/08/28 01:00:01;;;;;;;0.40;0.40;;;;;;;12.70;100.00;98750.66;5013388;28;20104;-83
2023/08/28 01:02:33;;;;;;;0.40;0.40;;;;;;;12.63;100.00;98743.84;5030608;28;20440;-85
2023/08/28 01:05:01;;;;;;;0.50;0.50;;;;;;;12.66;100.00;98746.00;4997172;28;20045;-85
2023/08/28 01:08:28;;;;;;;0.40;0.40;;;;;;;12.58;100.00;98750.88;4996814;28;20099;-84
2023/08/28 01:11:00;;;;;;;0.50;0.50;;;;;;;12.27;100.00;98736.34;4931015;29;20051;-84
2023/08/28 01:13:36;;;;;;;0.50;0.50;;;;;;;12.12;100.00;98731.66;4899707;29;20079;-84
2023/08/28 01:16:04;;;;;;;0.43;0.43;;;;;;;12.20;100.00;98743.06;4915707;29;20115;-84
2023/08/28 01:18:31;;;;;;;0.50;0.50;;;;;;;12.07;100.00;98738.94;4930910;29;20055;-83
2023/08/28 01:20:59;;;;;;;0.50;0.50;;;;;;;12.15;100.00;98749.25;4883627;29;20048;-85
2023/08/28 01:23:31;;;;;;;0.50;0.50;;;;;;;12.09;100.00;98759.25;4930638;29;20056;-85
2023/08/28 01:25:58;;;;;;;0.50;0.50;;;;;;;12.03;100.00;98760.31;4884195;29;20121;-84
2023/08/28 01:28:28;;;;;;;0.50;0.50;;;;;;;11.83;100.00;98739.28;4914946;29;20115;-84
2023/08/28 01:30:55;;;;;;;0.50;0.50;;;;;;;11.79;100.00;98738.16;4915322;29;20043;-84
2023/08/28 01:33:23;;;;;;;0.50;0.50;;;;;;;11.77;100.00;98756.53;4930732;29;20043;-85
2023/08/28 01:36:37;;;;;;;0.50;0.50;;;;;;;11.82;100.00;98767.38;4930894;29;20058;-84
2023/08/28 01:39:09;;;;;;;0.40;0.40;;;;;;;11.55;100.00;98747.72;4912137;29;20090;-84
2023/08/28 01:41:37;;;;;;;0.50;0.50;;;;;;;11.65;100.00;98770.25;4987692;28;20053;-83
2023/08/28 01:44:06;;;;;;;0.60;0.60;;;;;;;11.61;100.00;98761.00;5012971;28;20084;-85
2023/08/28 01:46:33;;;;;;;0.50;0.50;;;;;;;11.66;100.00;98760.25;5012699;28;20120;-85
2023/08/28 01:49:02;;;;;;;0.50;0.50;;;;;;;11.73;100.00;98770.84;5012921;28;20050;-84
2023/08/28 01:51:29;;;;;;;0.50;0.50;;;;;;;11.66;100.00;98763.75;5029958;28;20096;-85
2023/08/28 01:53:56;;;;;;;0.50;0.50;;;;;;;11.64;100.00;98763.19;5030125;28;20092;-84
2023/08/28 01:56:24;;;;;;;0.50;0.50;;;;;;;11.60;100.00;98755.88;5012263;28;20049;-84
2023/08/28 01:58:56;;;;;;;0.50;0.50;;;;;;;11.68;100.00;98775.13;4996363;28;20574;-84
2023/08/28 02:01:25;;;;;;;0.50;0.50;;;;;;;11.52;100.00;98754.47;4996022;28;20513;-85
2023/08/28 02:03:53;;;;;;;0.50;0.50;;;;;;;11.55;100.00;98764.75;4996403;28;20129;-84
2023/08/28 02:06:21;;;;;;;0.57;0.57;;;;;;;11.54;100.00;98765.81;5012562;28;20124;-85
2023/08/28 02:08:48;;;;;;;0.50;0.50;;;;;;;11.54;100.00;98779.31;5012592;28;20427;-84
2023/08/28 02:11:15;;;;;;;0.50;0.50;;;;;;;11.47;100.00;98781.44;5012300;28;20104;-85
2023/08/28 02:13:45;;;;;;;0.50;0.50;;;;;;;11.40;100.00;98778.94;5012734;28;20055;-85
2023/08/28 02:16:15;;;;;;;0.55;0.55;;;;;;;11.38;100.00;98791.06;5012289;28;20045;-84
2023/08/28 02:18:42;;;;;;;0.60;0.60;;;;;;;11.15;100.00;98775.97;5027993;28;20455;-85
2023/08/28 02:21:10;;;;;;;0.50;0.50;;;;;;;11.21;100.00;98780.34;5031834;28;20049;-86
2023/08/28 02:23:37;;;;;;;0.55;0.55;;;;;;;11.16;100.00;98777.59;5031544;28;20068;-84
2023/08/28 02:26:05;;;;;;;0.50;0.50;;;;;;;11.15;100.00;98786.78;5015767;28;20462;-83
2023/08/28 02:28:32;;;;;;;0.50;0.50;;;;;;;11.24;100.00;98810.38;5015459;28;20130;-84
2023/08/28 02:31:00;;;;;;;0.50;0.50;;;;;;;11.31;100.00;98812.06;5031655;28;20507;-86
2023/08/28 02:33:27;;;;;;;0.50;0.50;;;;;;;11.11;100.00;98797.25;5052596;28;20049;-85
2023/08/28 02:35:54;;;;;;;0.50;0.50;;;;;;;11.12;100.00;98792.69;5053334;28;20124;-85
2023/08/28 02:38:22;;;;;;;0.60;0.60;;;;;;;11.27;100.00;98809.88;5019042;28;20053;-85
2023/08/28 02:40:49;;;;;;;0.50;0.50;;;;;;;11.19;100.00;98810.31;5035523;28;20072;-85
2023/08/28 02:43:16;;;;;;;0.50;0.50;;;;;;;11.30;100.00;98824.75;5035390;28;20051;-85
2023/08/28 02:45:44;;;;;;;0.50;0.50;;;;;;;11.29;100.00;98815.00;5035545;28;20079;-85
2023/08/28 02:48:11;;;;;;;0.55;0.55;;;;;;;11.24;100.00;98793.34;5019098;28;20072;-86
2023/08/28 02:50:39;;;;;;;0.50;0.50;;;;;;;11.23;100.00;98795.22;5035699;28;20052;-85
2023/08/28 02:53:06;;;;;;;0.50;0.50;;;;;;;11.32;100.00;98801.00;5056716;28;20052;-84
2023/08/28 02:55:39;;;;;;;0.50;0.50;;;;;;;11.39;100.00;98803.50;5035303;28;20569;-85
2023/08/28 02:58:08;;;;;;;0.50;0.50;;;;;;;11.35;100.00;98796.97;5035299;28;20076;-85
2023/08/28 03:00:43;;;;;;;0.50;0.50;;;;;;;11.60;100.00;98826.16;5031799;28;20099;-85
2023/08/28 03:03:10;;;;;;;0.50;0.50;;;;;;;11.48;100.00;98807.38;5016463;28;20135;-81
2023/08/28 03:05:38;;;;;;;0.50;0.50;;;;;;;11.58;100.00;98834.50;5052316;28;20136;-81
2023/08/28 03:08:05;;;;;;;0.50;0.50;;;;;;;11.68;100.00;98841.91;5034816;28;20049;-85
2023/08/28 03:10:34;;;;;;;0.50;0.50;;;;;;;11.59;100.00;98821.78;5052152;28;20107;-86
2023/08/28 03:13:02;;;;;;;0.50;0.50;;;;;;;11.79;100.00;98835.50;5036209;28;20045;-86
2023/08/28 03:15:33;;;;;;;0.50;0.50;;;;;;;11.80;100.00;98833.59;5038617;28;20055;-84
2023/08/28 03:18:01;;;;;;;0.60;0.60;;;;;;;11.84;100.00;98832.03;5022678;28;20076;-83
2023/08/28 03:20:28;;;;;;;0.60;0.60;;;;;;;11.76;100.00;98816.28;5043632;28;20037;-83
2023/08/28 03:22:56;;;;;;;0.50;0.50;;;;;;;11.85;100.00;98820.13;5026166;28;20057;-83
2023/08/28 03:25:24;;;;;;;0.50;0.50;;;;;;;11.92;100.00;98835.13;5024806;28;20053;-85
2023/08/28 03:27:51;;;;;;;0.52;0.52;;;;;;;12.09;100.00;98840.41;5019720;28;20415;-84
2023/08/28 03:30:18;;;;;;;0.60;0.60;;;;;;;12.24;100.00;98841.59;5042718;28;20084;-83
2023/08/28 03:32:46;;;;;;;0.60;0.60;;;;;;;12.28;100.00;98839.97;5042643;28;20458;-84
2023/08/28 03:35:13;;;;;;;0.50;0.50;;;;;;;12.33;100.00;98829.19;5021639;28;20579;-84
2023/08/28 03:37:40;;;;;;;0.60;0.60;;;;;;;12.53;100.00;98851.00;5040439;28;20144;-84
2023/08/28 03:40:09;;;;;;;0.50;0.50;;;;;;;12.52;100.00;98829.59;5038464;28;20049;-85
2023/08/28 03:42:36;;;;;;;0.40;0.40;;;;;;;12.68;100.00;98852.16;4989334;28;20042;-84
2023/08/28 03:45:03;;;;;;;0.50;0.50;;;;;;;12.57;100.00;98816.09;4994421;28;20049;-83
2023/08/28 03:47:31;;;;;;;0.50;0.50;;;;;;;12.80;100.00;98844.66;5014591;28;20045;-85
2023/08/28 03:49:58;;;;;;;0.60;0.60;;;;;;;12.73;100.00;98817.81;5014721;28;20061;-87
2023/08/28 03:52:27;;;;;;;0.60;0.60;;;;;;;12.88;100.00;98825.19;5032144;28;20052;-86
2023/08/28 03:54:54;;;;;;;0.50;0.50;;;;;;;13.11;100.00;98847.50;5008924;28;20064;-85
2023/08/28 03:57:23;;;;;;;0.50;0.50;;;;;;;13.22;99.46;98841.06;5023253;28;20132;-86
2023/08/28 03:59:50;;;;;;;0.50;0.50;;;;;;;13.32;98.59;98856.53;5007796;28;20045;-83
2023/08/28 04:02:17;;;;;;;0.50;0.50;;;;;;;13.22;97.58;98825.59;5023112;28;20052;-82
2023/08/28 04:04:44;;;;;;;0.50;0.50;;;;;;;13.39;96.60;98849.81;5005339;28;20041;-84
2023/08/28 04:07:24;;;;;;;0.50;0.50;;;;;;;13.37;95.89;98840.31;4997718;28;20420;-86
2023/08/28 04:09:54;;;;;;;0.40;0.40;;;;;;;13.54;95.14;98842.78;5008824;28;20056;-83
2023/08/28 04:12:21;;;;;;;0.50;0.50;;;;;;;13.52;93.69;98823.25;5071772;28;20511;-84
2023/08/28 04:14:50;;;;;;;0.50;0.50;;;;;;;13.68;92.87;98840.41;5037454;28;20143;-82
2023/08/28 04:17:17;;;;;;;0.50;0.50;;;;;;;13.70;91.81;98830.06;5071317;28;20058;-84
2023/08/28 04:19:45;;;;;;;0.50;0.50;;;;;;;13.73;91.38;98824.13;5071226;28;20457;-83
2023/08/28 04:22:13;;;;;;;0.43;0.43;;;;;;;13.76;90.78;98818.97;5053697;28;20511;-84
2023/08/28 04:24:44;;;;;;;0.50;0.50;;;;;;;13.98;89.84;98840.41;5037314;28;20479;-83
2023/08/28 04:27:11;;;;;;;0.50;0.50;;;;;;;14.00;88.21;98824.69;5036906;28;20044;-83
2023/08/28 04:29:39;;;;;;;0.50;0.50;;;;;;;14.20;86.93;98823.84;5036596;28;20102;-84
2023/08/28 04:32:07;;;;;;;0.50;0.50;;;;;;;14.14;86.38;98816.81;5053592;28;20044;-83
2023/08/28 04:34:34;;;;;;;0.50;0.50;;;;;;;14.27;85.91;98829.81;5071062;28;20062;-84
2023/08/28 04:37:01;;;;;;;0.40;0.40;;;;;;;14.39;85.02;98828.75;5053944;28;20045;-83
2023/08/28 04:39:32;;;;;;;0.50;0.50;;;;;;;14.26;83.99;98800.25;5053235;28;20106;-85
2023/08/28 04:41:59;;;;;;;0.50;0.50;;;;;;;14.46;83.54;98818.41;5036418;28;20102;-84
2023/08/28 04:44:26;;;;;;;0.50;0.50;;;;;;;14.57;82.20;98816.50;5053063;28;20052;-83
2023/08/28 04:46:54;;;;;;;0.50;0.50;;;;;;;14.68;81.12;98823.53;5052494;28;20052;-83
2023/08/28 04:49:21;;;;;;;0.50;0.50;;;;;;;14.67;80.42;98820.00;5054064;28;20053;-83
2023/08/28 04:51:48;;;;;;;0.50;0.50;;;;;;;14.79;79.43;98822.44;5038036;28;20044;-84
2023/08/28 04:54:15;;;;;;;0.50;0.50;;;;;;;14.93;78.92;98822.66;5079019;28;20048;-83
2023/08/28 04:56:42;;;;;;;0.50;0.50;;;;;;;15.03;78.54;98830.75;5077873;28;20071;-84
2023/08/28 04:59:10;;;;;;;0.50;0.50;;;;;;;14.94;78.18;98799.84;5043593;28;20055;-84
2023/08/28 05:01:37;;;;;;;0.50;0.50;;;;;;;15.05;78.69;98817.72;5052743;28;20131;-85
2023/08/28 05:04:05;;;;;;;0.40;0.40;;;;;;;15.22;78.70;98824.69;5052931;28;20048;-84
2023/08/28 05:06:34;;;;;;;0.50;0.50;;;;;;;15.30;78.19;98829.56;5052260;28;20048;-84
2023/08/28 05:09:01;;;;;;;0.50;0.50;;;;;;;15.36;77.38;98833.88;5070483;28;20052;-85
2023/08/28 05:11:28;;;;;;;0.50;0.50;;;;;;;15.31;75.44;98818.41;5052026;28;20653;-83
2023/08/28 05:13:56;;;;;;;0.50;0.50;;;;;;;15.39;74.11;98825.97;5052674;28;20053;-83
2023/08/28 05:16:23;;;;;;;0.50;0.50;;;;;;;15.52;73.87;98840.88;5052864;28;20052;-83
2023/08/28 05:18:53;;;;;;;0.50;0.50;;;;;;;15.46;73.73;98820.22;5035612;28;20044;-84
2023/08/28 05:21:21;;;;;;;0.50;0.50;;;;;;;15.75;73.29;98833.16;5052618;28;20049;-84
2023/08/28 05:23:48;;;;;;;0.50;0.50;;;;;;;15.91;72.03;98845.53;5035701;28;20083;-82
2023/08/28 05:26:15;;;;;;;0.50;0.50;;;;;;;15.87;71.75;98819.16;5052478;28;20139;-84
2023/08/28 05:28:45;;;;;;;0.45;0.45;;;;;;;16.00;71.70;98821.22;5052383;28;20443;-84
2023/08/28 05:31:12;;;;;;;0.50;0.50;;;;;;;16.19;70.36;98830.34;5070376;28;20490;-83
2023/08/28 05:33:40;;;;;;;0.50;0.50;;;;;;;16.19;70.04;98815.91;5035437;28;20046;-84
2023/08/28 05:36:08;;;;;;;0.50;0.50;;;;;;;16.24;68.73;98832.22;5052379;28;20048;-83
2023/08/28 05:38:35;;;;;;;0.50;0.50;;;;;;;16.27;67.15;98818.00;5052108;28;20048;-85
2023/08/28 05:41:04;;;;;;;0.40;0.40;;;;;;;16.50;66.72;98840.94;5052550;28;20045;-84
2023/08/28 05:43:31;;;;;;;0.50;0.50;;;;;;;16.48;66.15;98815.91;5035752;28;20106;-84
2023/08/28 05:45:59;;;;;;;0.50;0.50;;;;;;;16.57;65.38;98818.81;5052488;28;20462;-84
2023/08/28 05:48:27;;;;;;;0.40;0.40;;;;;;;16.66;65.07;98819.78;5035144;28;20049;-85
2023/08/28 05:50:54;;;;;;;0.50;0.50;;;;;;;16.74;65.50;98818.38;5052051;28;20044;-84
2023/08/28 05:53:21;;;;;;;0.40;0.40;;;;;;;16.87;64.64;98821.25;5070198;28;20706;-84
2023/08/28 05:55:48;;;;;;;0.50;0.50;;;;;;;16.97;63.34;98827.69;5069910;28;20114;-84
2023/08/28 05:58:17;;;;;;;0.47;0.47;;;;;;;16.99;62.43;98830.91;5052301;28;20125;-84
2023/08/28 06:00:45;;;;;;;0.50;0.50;;;;;;;17.06;61.37;98836.81;5069955;28;20098;-84
2023/08/28 06:03:12;;;;;;;0.40;0.40;;;;;;;16.99;60.94;98817.28;5052167;28;20048;-83
2023/08/28 06:05:39;;;;;;;0.40;0.40;;;;;;;17.06;60.62;98817.75;5052305;28;20045;-84
2023/08/28 06:08:07;;;;;;;0.40;0.40;;;;;;;17.03;59.23;98801.97;5073468;28;20049;-84
2023/08/28 06:10:38;;;;;;;0.40;0.40;;;;;;;17.20;59.80;98836.94;5056014;28;20060;-84
2023/08/28 06:13:06;;;;;;;0.40;0.40;;;;;;;17.21;59.61;98830.38;5074627;28;20128;-83
2023/08/28 06:15:34;;;;;;;0.40;0.40;;;;;;;17.31;58.36;98833.78;5056551;28;20048;-84
2023/08/28 06:18:01;;;;;;;0.40;0.40;;;;;;;17.42;57.52;98833.63;5056385;28;20102;-84
2023/08/28 06:20:30;;;;;;;0.50;0.50;;;;;;;17.39;57.31;98812.41;5055501;28;20050;-83
2023/08/28 06:22:58;;;;;;;0.40;0.40;;;;;;;17.38;57.19;98806.16;5055909;28;20094;-84
2023/08/28 06:25:25;;;;;;;0.40;0.40;;;;;;;17.51;56.38;98820.97;5073774;28;20126;-84
2023/08/28 06:27:52;;;;;;;0.45;0.45;;;;;;;17.58;56.02;98818.69;5055855;28;20040;-84
2023/08/28 06:30:19;;;;;;;0.40;0.40;;;;;;;17.63;55.64;98823.28;5055679;28;20583;-84
2023/08/28 06:32:47;;;;;;;0.40;0.40;;;;;;;17.81;56.13;98843.50;5038739;28;20044;-84
2023/08/28 06:35:14;;;;;;;0.43;0.43;;;;;;;17.86;56.31;98829.78;5055182;28;20076;-84
2023/08/28 06:37:41;;;;;;;0.40;0.40;;;;;;;17.95;56.01;98826.09;5073623;28;20047;-83
2023/08/28 06:40:09;;;;;;;0.40;0.40;;;;;;;17.97;55.16;98823.84;5074105;28;20051;-84
2023/08/28 06:42:36;;;;;;;0.40;0.40;;;;;;;18.01;54.44;98817.81;5073209;28;20135;-84
2023/08/28 06:45:07;;;;;;;0.40;0.40;;;;;;;17.96;54.19;98810.50;5055492;28;20427;-85
2023/08/28 06:47:35;;;;;;;0.40;0.40;;;;;;;18.10;54.14;98827.72;5055131;28;20415;-84
2023/08/28 06:50:02;;;;;;;0.40;0.40;;;;;;;17.92;54.81;98809.47;5055368;28;20052;-84
2023/08/28 06:52:30;;;;;;;0.47;0.47;;;;;;;18.07;54.23;98828.34;5072752;28;20049;-84
2023/08/28 06:54:57;;;;;;;0.40;0.40;;;;;;;18.17;53.53;98830.88;5073197;28;20139;-85
2023/08/28 06:57:31;;;;;;;0.40;0.40;;;;;;;18.40;53.21;98839.25;5072744;28;20131;-84
2023/08/28 06:59:58;;;;;;;0.40;0.40;;;;;;;18.42;52.85;98835.13;5055202;28;20495;-84
2023/08/28 07:02:25;;;;;;;0.50;0.50;;;;;;;18.52;52.88;98838.78;5072824;28;20050;-85
2023/08/28 07:04:52;;;;;;;0.40;0.40;;;;;;;18.59;52.69;98845.47;5072697;28;20057;-84
2023/08/28 07:07:20;;;;;;;0.40;0.40;;;;;;;18.63;52.14;98838.31;5054792;28;20052;-84
2023/08/28 07:09:47;;;;;;;0.40;0.40;;;;;;;18.60;52.04;98835.34;5054335;28;20055;-84
2023/08/28 07:12:14;;;;;;;0.40;0.40;;;;;;;18.77;50.75;98841.06;5054584;28;20511;-84
2023/08/28 07:14:41;;;;;;;0.40;0.40;;;;;;;18.73;51.69;98812.69;5054889;28;20048;-85
2023/08/28 07:17:08;;;;;;;0.50;0.50;;;;;;;19.00;51.85;98825.59;5072477;28;20132;-84
2023/08/28 07:19:37;;;;;;;0.40;0.40;;;;;;;19.21;51.48;98822.44;5071281;28;20075;-84
2023/08/28 07:22:05;;;;;;;0.50;0.50;;;;;;;19.42;50.75;98822.78;5072890;28;20192;-84
2023/08/28 07:24:32;;;;;;;0.40;0.40;;;;;;;19.48;50.02;98838.00;5054469;28;20076;-85
2023/08/28 07:27:00;;;;;;;0.40;0.40;;;;;;;19.40;49.84;98822.31;5072552;28;20530;-86
2023/08/28 07:29:27;;;;;;;0.50;0.50;;;;;;;19.68;48.59;98832.09;5072538;28;20098;-85
2023/08/28 07:32:00;;;;;;;0.50;0.50;;;;;;;19.67;47.05;98814.06;5054525;28;20056;-85
2023/08/28 07:34:27;;;;;;;0.50;0.50;;;;;;;19.66;45.32;98808.84;5072158;28;20052;-84
2023/08/28 07:36:54;;;;;;;0.30;0.30;;;;;;;19.66;47.09;98828.00;5072169;28;20281;-85
2023/08/28 07:39:21;;;;;;;0.40;0.40;;;;;;;19.36;47.22;98822.09;5054450;28;20055;-85
2023/08/28 07:41:49;;;;;;;0.40;0.40;;;;;;;19.11;47.51;98836.31;5054091;28;20554;-83
2023/08/28 07:44:16;;;;;;;0.50;0.50;;;;;;;18.94;46.38;98828.72;5072121;28;20094;-86
2023/08/28 07:46:43;;;;;;;0.40;0.40;;;;;;;18.90;46.85;98841.38;5071804;28;20484;-84
2023/08/28 07:49:10;;;;;;;0.32;0.32;;;;;;;18.54;47.77;98834.63;5054339;28;20052;-84
2023/08/28 07:51:38;;;;;;;0.40;0.40;;;;;;;18.41;47.86;98838.16;5071869;28;20064;-85
2023/08/28 07:54:06;;;;;;;0.40;0.40;;;;;;;18.31;48.65;98821.94;5071783;28;20064;-85
2023/08/28 07:56:33;;;;;;;0.40;0.40;;;;;;;18.32;48.87;98809.91;5053789;28;20109;-85
2023/08/28 07:59:00;;;;;;;0.40;0.40;;;;;;;18.81;48.35;98819.41;5071582;28;20135;-84
2023/08/28 08:01:31;;;;;;;0.40;0.40;;;;;;;19.11;45.25;98803.50;5054072;28;20048;-85
2023/08/28 08:03:59;;;;;;;0.38;0.38;;;;;;;18.82;45.30;98818.31;5038076;28;20059;-83
2023/08/28 08:06:26;;;;;;;0.40;0.40;;;;;;;18.73;47.08;98811.88;5071541;28;20048;-85
2023/08/28 08:08:53;;;;;;;0.30;0.30;;;;;;;18.81;47.36;98822.13;5053622;28;20095;-84
2023/08/28 08:11:20;;;;;;;0.40;0.40;;;;;;;18.69;48.38;98799.94;5071417;28;20064;-84
2023/08/28 08:13:48;;;;;;;0.50;0.50;;;;;;;19.31;46.85;98808.53;5048797;28;20103;-84
2023/08/28 08:16:15;;;;;;;0.40;0.40;;;;;;;19.51;46.51;98844.78;5049223;28;20049;-84
2023/08/28 08:18:42;;;;;;;0.50;0.50;;;;;;;19.49;46.53;98814.97;5048669;28;20080;-84
2023/08/28 08:21:10;;;;;;;0.40;0.40;;;;;;;19.70;45.89;98823.59;5049015;28;20052;-85
2023/08/28 08:23:37;;;;;;;0.40;0.40;;;;;;;19.66;46.16;98834.28;5048752;28;20045;-85
2023/08/28 08:26:04;;;;;;;0.40;0.40;;;;;;;19.55;46.61;98832.91;5048785;28;20144;-85
2023/08/28 08:28:35;;;;;;;0.50;0.50;;;;;;;19.81;46.07;98821.41;5031923;28;20080;-84
2023/08/28 08:31:05;;;;;;;0.60;0.60;;;;;;;21.18;44.36;98835.41;5031882;28;20125;-85
2023/08/28 08:33:32;;;;;;;0.60;0.60;;;;;;;22.31;41.80;98819.03;5048401;28;20663;-84
2023/08/28 08:36:00;;;;;;;0.60;0.60;;;;;;;23.14;40.07;98823.25;5048527;28;20157;-85
2023/08/28 08:38:27;;;;;;;0.60;0.60;;;;;;;23.89;38.75;98828.13;5015666;28;20049;-85
2023/08/28 08:40:55;;;;;;;0.60;0.60;;;;;;;24.35;36.84;98826.22;5047986;28;20492;-84
2023/08/28 08:43:22;;;;;;;0.60;0.60;;;;;;;24.60;36.70;98833.44;5048285;28;20057;-84
2023/08/28 08:45:50;;;;;;;0.57;0.57;;;;;;;24.90;34.79;98827.75;5052362;28;20048;-85
2023/08/28 08:48:21;;;;;;;0.50;0.50;;;;;;;24.85;35.80;98812.22;5053152;28;20079;-86
2023/08/28 08:50:48;;;;;;;0.50;0.50;;;;;;;25.07;36.04;98819.25;5053365;28;20506;-85
2023/08/28 08:53:43;;;;;;;0.60;0.60;;;;;;;25.04;36.25;98808.91;5003025;28;20099;-85
2023/08/28 08:56:17;;;;;;;0.50;0.50;;;;;;;25.49;35.38;98837.53;5070939;28;20044;-84
2023/08/28 08:58:46;;;;;;;0.50;0.50;;;;;;;25.62;35.39;98816.19;5052497;28;20127;-85
2023/08/28 09:01:17;;;;;;;0.50;0.50;;;;;;;25.77;34.35;98811.91;5020095;28;20053;-85
2023/08/28 09:03:44;;;;;;;0.50;0.50;;;;;;;25.85;33.83;98809.03;5052412;28;20044;-84
2023/08/28 09:06:12;;;;;;;0.50;0.50;;;;;;;25.77;33.41;98779.53;5052145;28;20054;-84
2023/08/28 09:08:45;;;;;;;0.50;0.50;;;;;;;26.39;33.46;98782.84;5035853;28;20563;-84
2023/08/28 09:11:12;;;;;;;0.50;0.50;;;;;;;26.77;32.05;98773.94;5036058;28;20063;-83
2023/08/28 09:13:41;;;;;;;0.40;0.40;;;;;;;26.58;32.13;98771.09;5070025;28;20079;-84
2023/08/28 09:16:09;;;;;;;0.40;0.40;;;;;;;26.58;32.82;98784.94;5052294;28;20048;-84
2023/08/28 09:18:37;;;;;;;0.50;0.50;;;;;;;26.84;32.45;98780.81;5069643;28;20041;-85
2023/08/28 09:21:12;;;;;;;0.40;0.40;;;;;;;26.37;33.42;98774.88;5070318;28;20131;-85
2023/08/28 09:23:44;;;;;;;0.38;0.38;;;;;;;25.29;34.87;98772.97;5069978;28;20105;-83
2023/08/28 09:26:19;;;;;;;0.40;0.40;;;;;;;25.51;34.35;98769.72;5070124;28;20044;-84
2023/08/28 09:29:06;;;;;;;0.30;0.30;;;;;;;25.40;34.69;98778.84;5069825;28;20048;-85
2023/08/28 09:31:39;;;;;;;0.47;0.47;;;;;;;26.01;34.33;98791.69;5019511;28;20443;-85
2023/08/28 09:34:07;;;;;;;0.20;0.20;;;;;;;25.84;33.98;98790.78;5052816;28;20094;-85
2023/08/28 09:36:37;;;;;;;0.30;0.30;;;;;;;24.84;35.90;98788.53;5069716;28;20094;-83
2023/08/28 09:39:08;;;;;;;0.20;0.20;;;;;;;23.95;37.35;98793.69;5070147;28;20044;-84
2023/08/28 09:41:47;;;;;;;0.25;0.25;;;;;;;23.37;38.44;98801.75;5051338;28;20098;-84
2023/08/28 09:44:21;;;;;;;0.30;0.30;;;;;;;22.82;39.39;98806.22;5069665;28;20059;-85
2023/08/28 09:46:49;;;;;;;0.25;0.25;;;;;;;22.34;40.42;98796.38;5069621;28;20139;-84
2023/08/28 09:49:16;;;;;;;0.25;0.25;;;;;;;22.12;40.97;98813.03;5051378;28;20063;-84
2023/08/28 09:51:45;;;;;;;0.50;0.50;;;;;;;23.18;39.76;98812.41;5069498;28;20459;-84
2023/08/28 09:54:13;;;;;;;0.50;0.50;;;;;;;24.67;37.00;98794.28;5069454;28;20102;-82
2023/08/28 09:56:42;;;;;;;0.50;0.50;;;;;;;26.00;34.87;98792.84;5069133;28;20495;-84
2023/08/28 09:59:12;;;;;;;0.52;0.52;;;;;;;26.94;33.47;98796.88;5069353;28;20044;-84
2023/08/28 10:01:39;;;;;;;0.50;0.50;;;;;;;27.89;32.56;98791.13;5069745;28;20527;-84
2023/08/28 10:04:11;;;;;;;0.50;0.50;;;;;;;28.33;31.05;98771.34;5069998;28;20063;-84
2023/08/28 10:06:40;;;;;;;0.50;0.50;;;;;;;28.70;29.89;98793.06;5070912;28;20523;-84
2023/08/28 10:09:18;;;;;;;0.40;0.40;;;;;;;28.75;29.65;98781.63;5069763;28;20396;-86
2023/08/28 10:11:46;;;;;;;0.40;0.40;;;;;;;29.18;28.43;98793.44;5051472;28;20055;-84
2023/08/28 10:14:14;;;;;;;0.50;0.50;;;;;;;29.43;28.54;98788.25;5069314;28;20049;-84
2023/08/28 10:16:44;;;;;;;0.50;0.50;;;;;;;29.80;28.11;98804.25;5051283;28;20459;-84
2023/08/28 10:19:21;;;;;;;0.50;0.50;;;;;;;30.11;27.64;98780.78;5051578;28;20048;-85
2023/08/28 10:21:51;;;;;;;0.50;0.50;;;;;;;30.52;27.15;98785.59;5034797;28;20466;-85
2023/08/28 10:24:19;;;;;;;0.20;0.20;;;;;;;28.49;29.85;98772.09;5051172;28;20488;-85
2023/08/28 10:26:47;;;;;;;0.20;0.20;;;;;;;26.51;32.48;98790.25;5069223;28;20515;-84
2023/08/28 10:29:16;;;;;;;0.20;0.20;;;;;;;25.34;33.85;98791.28;5051573;28;20044;-84
2023/08/28 10:31:44;;;;;;;0.20;0.20;;;;;;;24.95;35.20;98788.06;5051330;28;20128;-84
2023/08/28 10:34:12;;;;;;;0.20;0.20;;;;;;;24.63;35.86;98788.63;5051575;28;20076;-84
2023/08/28 10:36:39;;;;;;;0.20;0.20;;;;;;;24.30;36.48;98779.56;5051365;28;20182;-85
2023/08/28 10:39:28;;;;;;;0.30;0.30;;;;;;;24.32;37.00;98788.31;5054625;28;20156;-85
2023/08/28 10:41:56;;;;;;;0.28;0.28;;;;;;;24.26;36.44;98789.66;5051259;28;20518;-84
2023/08/28 10:44:23;;;;;;;0.60;0.60;;;;;;;26.01;34.46;98784.19;5069660;28;20052;-85
2023/08/28 10:46:54;;;;;;;0.50;0.50;;;;;;;27.62;31.79;98779.84;5068988;28;20045;-84
2023/08/28 10:49:21;;;;;;;0.60;0.60;;;;;;;28.82;30.43;98770.66;5035303;28;20048;-84
2023/08/28 10:51:59;;;;;;;1.40;1.02;;;;;;;29.62;29.18;98784.53;5069074;28;20052;-84
2023/08/28 10:54:39;;;;;;;0.50;0.50;;;;;;;30.07;28.71;98781.94;5055176;28;20143;-85
2023/08/28 10:57:10;;;;;;;0.50;0.50;;;;;;;30.44;28.05;98779.16;5038551;28;20185;-84
2023/08/28 10:59:43;;;;;;;0.50;0.50;;;;;;;30.67;27.87;98788.13;5038661;28;20849;-84
2023/08/28 11:02:10;;;;;;;0.50;0.50;;;;;;;31.10;27.22;98777.34;5072896;28;20060;-84
2023/08/28 11:04:40;;;;;;;0.50;0.50;;;;;;;31.22;27.17;98781.81;5055655;28;20053;-86
2023/08/28 11:07:23;;;;;;;0.30;0.30;;;;;;;29.63;28.57;98786.16;5055768;28;20125;-84
2023/08/28 11:09:50;;;;;;;0.20;0.20;;;;;;;28.07;30.18;98783.97;5054849;28;20048;-84
2023/08/28 11:12:20;;;;;;;0.20;0.20;;;;;;;26.93;31.90;98786.97;5072488;28;20053;-85
2023/08/28 11:14:51;;;;;;;0.20;0.20;;;;;;;26.32;33.69;98782.66;5073263;28;20056;-84
2023/08/28 11:17:21;;;;;;;0.30;0.30;;;;;;;25.92;34.64;98773.28;5055432;28;20072;-84
2023/08/28 11:19:55;;;;;;;0.28;0.28;;;;;;;25.71;34.63;98786.47;5072435;28;20569;-85
2023/08/28 11:22:42;;;;;;;0.45;0.45;;;;;;;26.98;33.32;98781.97;5072442;28;20055;-85
2023/08/28 11:25:11;;;;;;;0.40;0.40;;;;;;;27.11;33.11;98771.56;5072308;28;20143;-83
2023/08/28 11:27:47;;;;;;;0.20;0.20;;;;;;;27.03;32.78;98767.84;5072124;28;20139;-85
2023/08/28 11:30:20;;;;;;;0.50;0.50;;;;;;;27.49;32.48;98770.06;5072470;28;20094;-85
2023/08/28 11:32:52;;;;;;;0.40;0.40;;;;;;;26.70;32.69;98775.75;5072165;28;20102;-86
2023/08/28 11:35:51;;;;;;;0.50;0.50;;;;;;;27.91;31.64;98766.63;5038230;28;20068;-85
2023/08/28 11:38:18;;;;;;;0.60;0.60;;;;;;;26.92;32.65;98764.03;5054618;28;20067;-85
2023/08/28 11:40:45;;;;;;;0.50;0.50;;;;;;;28.13;31.19;98756.75;5071850;28;20055;-85